Route Details

Aircraft Information
Group: European Fleet
Types: A30F, A31F, B738
Route Data
Distance: 517nm
Duration: 1h 30m
Origin METAR: EDDK 072350Z AUTO VRB01KT CAVOK M03/M07 Q1039 NOSIG
Dest. METAR: EIDW 080000Z 20004KT 160V240 9999 FEW038 BKN042 04/03 Q1034 NOSIG
Freight Data
(for Feb 8, 2023)
Load Factor:
63%
Manifested Cargo: 47,383lbs
Financial History
Total Freight: 390,516lbs
Average Load: 0lbs/flt
Fuel Used: 106,672lbs
Avg. Fuel Used: 0lbs/flt
Fuel Expense: $44,316
Avg. Fuel Expense: $0
Avg. Fuel Cost: $0/lbs
Total Gross Income: $877,018
Pilot Pay: $1,404
Total Expenses: $176,887
Total Revenue: $652,532
Average Revenue: $0

Capitol Logistics 547




EDDK
Cologne Bonn Airport
Cologne, DE
EIDW
Dublin Airport
Dublin, IE